Time;durP1;ratioP1;P1;durP2;ratioP2;P2;SDS_P1;SDS_P2;PMS_P1;PMS_P2;Temp;Humidity;BMP_temperature;BMP_pressure;BME280_temperature;BME280_humidity;BME280_pressure;Samples;Min_cycle;Max_cycle;Signal;HPM_P1;HPM_P2
2021/04/07 00:00:51;;;;;;;11.40;3.77;;;;;;;0.25;95.55;99749.06;4998798;28;20041;-89
2021/04/07 00:03:17;;;;;;;8.37;2.77;;;;;;;0.27;95.25;99752.56;5024004;28;20041;-88
2021/04/07 00:05:44;;;;;;;5.80;3.03;;;;;;;0.30;95.04;99754.31;5001669;28;20065;-89
2021/04/07 00:08:11;;;;;;;8.77;3.07;;;;;;;0.31;94.27;99754.31;5025284;28;20075;-89
2021/04/07 00:10:42;;;;;;;6.90;2.90;;;;;;;0.35;94.04;99760.41;5004790;28;20056;-89
2021/04/07 00:13:11;;;;;;;9.57;3.13;;;;;;;0.26;94.34;99756.03;5006880;28;20040;-90
2021/04/07 00:15:38;;;;;;;4.67;2.60;;;;;;;0.33;94.67;99751.72;5018261;28;20130;-88
2021/04/07 00:18:05;;;;;;;8.33;3.33;;;;;;;0.26;94.49;99750.84;5002216;28;20047;-88
2021/04/07 00:20:32;;;;;;;5.27;2.50;;;;;;;0.27;94.87;99749.97;5012000;28;20378;-89
2021/04/07 00:22:58;;;;;;;9.30;3.20;;;;;;;0.24;94.29;99760.31;5031982;28;20048;-88
2021/04/07 00:25:26;;;;;;;8.20;4.23;;;;;;;0.27;94.27;99757.78;5006189;28;20044;-89
2021/04/07 00:28:02;;;;;;;6.00;3.10;;;;;;;0.26;94.50;99756.03;5013222;28;20056;-88
2021/04/07 00:30:30;;;;;;;9.57;4.60;;;;;;;0.27;94.15;99768.16;5019528;28;20388;-89
2021/04/07 00:32:57;;;;;;;8.53;3.80;;;;;;;0.26;94.55;99766.44;4997796;28;20072;-89
2021/04/07 00:35:24;;;;;;;9.47;3.40;;;;;;;0.31;93.82;99771.63;5015023;28;20561;-88
2021/04/07 00:37:51;;;;;;;7.33;3.83;;;;;;;0.28;93.79;99768.16;4993105;28;20141;-88
2021/04/07 00:40:18;;;;;;;11.50;3.37;;;;;;;0.27;93.99;99773.34;5007183;28;20037;-88
2021/04/07 00:42:45;;;;;;;9.73;4.40;;;;;;;0.30;93.54;99777.69;4992566;28;20536;-89
2021/04/07 00:45:12;;;;;;;10.77;5.77;;;;;;;0.26;93.98;99775.09;5014687;28;20392;-89
2021/04/07 00:47:39;;;;;;;11.83;4.47;;;;;;;0.33;93.99;99772.50;5027352;28;20047;-89
2021/04/07 00:50:06;;;;;;;6.47;3.23;;;;;;;0.31;94.17;99769.91;5004449;28;20052;-88
2021/04/07 00:52:33;;;;;;;7.63;3.10;;;;;;;0.30;94.03;99772.50;4998214;28;20072;-88
2021/04/07 00:55:01;;;;;;;8.60;3.50;;;;;;;0.30;94.28;99780.28;4993312;28;20041;-88
2021/04/07 00:57:27;;;;;;;8.90;3.80;;;;;;;0.30;93.41;99783.75;5014541;28;20095;-89
2021/04/07 00:59:54;;;;;;;6.23;3.23;;;;;;;0.30;93.93;99777.69;5001428;28;20063;-89
2021/04/07 01:02:21;;;;;;;9.63;4.10;;;;;;;0.31;93.62;99782.03;5018693;28;20044;-89
2021/04/07 01:04:48;;;;;;;7.73;3.67;;;;;;;0.33;93.85;99775.09;5009544;28;20049;-89
2021/04/07 01:07:15;;;;;;;8.70;3.93;;;;;;;0.31;93.15;99776.84;5000702;28;20033;-88
2021/04/07 01:09:41;;;;;;;11.17;4.03;;;;;;;0.29;93.17;99776.81;4998333;28;20128;-88
2021/04/07 01:12:09;;;;;;;9.57;3.40;;;;;;;0.32;93.28;99786.34;5006441;28;20045;-89
2021/04/07 01:14:36;;;;;;;8.90;3.43;;;;;;;0.33;92.62;99783.75;4994509;28;20042;-88
2021/04/07 01:17:03;;;;;;;8.97;3.10;;;;;;;0.31;92.29;99782.03;5014478;28;20061;-89
2021/04/07 01:19:30;;;;;;;12.10;3.93;;;;;;;0.33;92.49;99783.75;5005058;28;20048;-88
2021/04/07 01:21:57;;;;;;;10.43;3.23;;;;;;;0.26;92.30;99788.06;5003152;28;20045;-89
2021/04/07 01:24:24;;;;;;;6.20;2.83;;;;;;;0.23;92.71;99787.16;5014842;28;20127;-88
2021/04/07 01:26:51;;;;;;;6.90;2.90;;;;;;;0.20;92.41;99779.38;4999337;28;20064;-88
2021/04/07 01:29:18;;;;;;;8.33;3.53;;;;;;;0.20;93.25;99789.75;5016705;28;20037;-89
2021/04/07 01:31:53;;;;;;;8.73;3.73;;;;;;;0.22;92.44;99788.03;5019051;28;20552;-89
2021/04/07 01:34:30;;;;;;;10.07;3.93;;;;;;;0.19;93.04;99788.03;5001153;28;20033;-89
2021/04/07 01:36:57;;;;;;;10.83;3.30;;;;;;;0.19;92.04;99788.03;5012466;28;20102;-88
2021/04/07 01:39:29;;;;;;;9.07;3.37;;;;;;;0.19;91.76;99798.41;5001147;28;20083;-89
2021/04/07 01:41:55;;;;;;;9.37;3.40;;;;;;;0.19;92.07;99801.00;4996873;28;20049;-88
2021/04/07 01:44:23;;;;;;;9.37;3.53;;;;;;;0.19;92.79;99804.47;5002675;28;20132;-88
2021/04/07 01:46:51;;;;;;;10.53;3.27;;;;;;;0.18;92.87;99809.66;5015300;28;20148;-89
2021/04/07 01:49:17;;;;;;;8.83;3.13;;;;;;;0.22;92.33;99807.09;4995945;28;20041;-87
2021/04/07 01:51:44;;;;;;;12.63;4.83;;;;;;;0.18;92.86;99810.53;5002611;28;20044;-88
2021/04/07 01:54:12;;;;;;;8.90;3.07;;;;;;;0.13;93.27;99804.41;5031448;28;20056;-88
2021/04/07 01:56:52;;;;;;;9.33;3.67;;;;;;;0.10;92.83;99800.94;5015817;28;20163;-87
2021/04/07 01:59:24;;;;;;;9.40;3.70;;;;;;;0.13;93.36;99808.75;5017099;28;20684;-89
2021/04/07 02:01:51;;;;;;;8.60;3.03;;;;;;;0.09;93.05;99817.38;4986148;28;20051;-89
2021/04/07 02:04:18;;;;;;;11.83;3.67;;;;;;;0.09;93.45;99807.88;4990649;28;20478;-89
2021/04/07 02:06:45;;;;;;;7.93;3.47;;;;;;;0.09;93.46;99817.38;5007916;28;20061;-88
2021/04/07 02:09:13;;;;;;;6.70;3.73;;;;;;;0.10;93.08;99816.53;5033851;28;20041;-88
2021/04/07 02:11:46;;;;;;;10.97;3.17;;;;;;;0.08;92.97;99819.06;5018546;28;20491;-89
2021/04/07 02:14:14;;;;;;;9.65;3.45;;;;;;;0.07;92.96;99814.75;5013579;28;20387;-89
2021/04/07 02:16:40;;;;;;;6.53;3.73;;;;;;;0.04;93.51;99816.47;4991992;28;20041;-87
2021/04/07 02:19:08;;;;;;;8.30;3.60;;;;;;;0.02;92.88;99816.44;5001492;28;20037;-89
2021/04/07 02:21:37;;;;;;;10.60;4.17;;;;;;;0.05;93.05;99823.38;5034359;28;20681;-89
2021/04/07 02:24:04;;;;;;;8.13;3.60;;;;;;;-0.01;92.68;99821.59;5017025;28;20051;-88
2021/04/07 02:26:34;;;;;;;13.77;3.83;;;;;;;-0.06;93.33;99818.13;5017680;28;20606;-88
2021/04/07 02:29:00;;;;;;;9.17;3.70;;;;;;;-0.10;93.90;99821.53;4998483;28;20029;-88
2021/04/07 02:31:26;;;;;;;10.83;3.93;;;;;;;-0.10;94.33;99826.72;5018211;28;20142;-87
2021/04/07 02:33:53;;;;;;;9.57;4.10;;;;;;;-0.08;93.81;99836.28;5013996;28;20045;-88
2021/04/07 02:36:19;;;;;;;7.77;3.63;;;;;;;-0.12;94.33;99831.91;5012500;28;20399;-88
2021/04/07 02:38:45;;;;;;;9.70;3.53;;;;;;;-0.07;93.76;99837.16;5030571;28;20037;-90
2021/04/07 02:41:11;;;;;;;17.67;4.30;;;;;;;-0.06;93.88;99831.97;4992598;28;20050;-89
2021/04/07 02:43:37;;;;;;;8.03;3.60;;;;;;;-0.04;94.18;99840.63;5014980;28;20067;-88
2021/04/07 02:46:04;;;;;;;8.27;3.17;;;;;;;-0.01;94.44;99843.25;5000960;28;20045;-88
2021/04/07 02:48:31;;;;;;;8.43;3.73;;;;;;;-0.02;93.84;99833.72;5017246;28;20387;-88
2021/04/07 02:50:58;;;;;;;11.57;4.27;;;;;;;-0.04;93.53;99839.75;4997793;28;20721;-88
2021/04/07 02:53:24;;;;;;;8.30;3.23;;;;;;;-0.03;93.21;99842.38;5000671;28;20055;-88
2021/04/07 02:55:50;;;;;;;9.30;3.43;;;;;;;-0.04;94.41;99837.16;5003548;28;20498;-88
2021/04/07 02:58:16;;;;;;;7.50;3.43;;;;;;;-0.04;94.17;99844.94;5001068;28;20070;-88
2021/04/07 03:00:43;;;;;;;8.53;2.97;;;;;;;0.01;93.87;99840.69;4990442;28;20069;-88
2021/04/07 03:03:09;;;;;;;7.80;3.00;;;;;;;0.08;93.09;99852.84;4999499;28;20051;-89
2021/04/07 03:05:40;;;;;;;15.83;3.97;;;;;;;0.02;93.46;99845.03;5001626;28;20043;-88
2021/04/07 03:08:06;;;;;;;9.07;4.37;;;;;;;0.09;93.01;99848.53;4998325;28;20041;-88
2021/04/07 03:10:33;;;;;;;8.93;4.53;;;;;;;0.08;93.37;99846.78;4988624;28;20049;-88
2021/04/07 03:12:59;;;;;;;9.00;3.20;;;;;;;0.04;93.29;99847.63;5010331;28;20041;-88
2021/04/07 03:15:25;;;;;;;7.33;3.10;;;;;;;0.06;93.90;99843.31;5000532;28;20502;-88
2021/04/07 03:17:51;;;;;;;9.00;3.30;;;;;;;0.04;94.31;99848.50;4999879;28;20056;-89
2021/04/07 03:20:18;;;;;;;11.03;3.10;;;;;;;0.03;93.75;99846.75;4999833;28;20040;-88
2021/04/07 03:22:44;;;;;;;9.10;2.90;;;;;;;0.04;93.97;99852.81;4998805;28;20063;-88
2021/04/07 03:25:10;;;;;;;11.23;3.20;;;;;;;0.04;93.78;99847.63;5002534;28;20049;-89
2021/04/07 03:27:38;;;;;;;11.90;3.43;;;;;;;-0.02;93.92;99854.50;5032598;28;20244;-89
2021/04/07 03:30:05;;;;;;;8.87;2.80;;;;;;;0.03;93.48;99856.28;5010348;28;20466;-88
2021/04/07 03:32:32;;;;;;;8.73;3.40;;;;;;;0.02;93.94;99858.00;5014654;28;20034;-89
2021/04/07 03:34:58;;;;;;;9.50;3.23;;;;;;;0.07;93.46;99864.09;5017442;28;20041;-88
2021/04/07 03:37:26;;;;;;;7.93;3.83;;;;;;;0.04;93.41;99855.41;4997973;28;20037;-87
2021/04/07 03:39:53;;;;;;;8.10;3.47;;;;;;;0.04;93.30;99860.59;4999829;28;20041;-89
2021/04/07 03:42:19;;;;;;;7.83;3.07;;;;;;;0.06;93.31;99857.16;4999640;28;20064;-88
2021/04/07 03:44:46;;;;;;;8.87;3.03;;;;;;;0.02;93.87;99850.22;5023239;28;20124;-88
2021/04/07 03:47:12;;;;;;;10.20;3.73;;;;;;;0.01;94.23;99858.00;5017148;28;20047;-90
2021/04/07 03:49:38;;;;;;;12.13;4.73;;;;;;;0.02;93.81;99859.72;5002677;28;20091;-88
2021/04/07 03:52:05;;;;;;;11.57;4.37;;;;;;;0.02;93.91;99864.94;5016338;28;20064;-88
2021/04/07 03:54:31;;;;;;;10.03;5.00;;;;;;;-0.01;94.16;99855.34;5000109;28;20080;-88
2021/04/07 03:56:57;;;;;;;14.13;6.30;;;;;;;-0.04;94.17;99863.13;5000186;28;20052;-89
2021/04/07 03:59:24;;;;;;;6.73;3.30;;;;;;;-0.07;93.85;99866.56;5000201;28;20220;-89
2021/04/07 04:01:50;;;;;;;9.10;3.30;;;;;;;-0.09;94.43;99862.19;4999455;28;20053;-89
2021/04/07 04:04:16;;;;;;;10.17;3.60;;;;;;;-0.08;94.36;99870.03;4993264;28;20146;-88
2021/04/07 04:06:45;;;;;;;8.20;3.10;;;;;;;-0.14;94.80;99882.94;5010031;28;20056;-89
2021/04/07 04:09:12;;;;;;;9.63;3.07;;;;;;;-0.16;94.78;99874.28;5007949;28;20407;-88
2021/04/07 04:11:40;;;;;;;8.67;3.07;;;;;;;-0.17;95.58;99875.13;5004405;28;20046;-88
2021/04/07 04:14:06;;;;;;;11.80;3.20;;;;;;;-0.17;95.15;99884.63;5015875;28;20033;-88
2021/04/07 04:16:33;;;;;;;6.10;3.00;;;;;;;-0.16;95.46;99887.25;5000358;28;20041;-89
2021/04/07 04:18:59;;;;;;;9.63;3.60;;;;;;;-0.17;95.43;99888.13;5015653;28;20053;-90
2021/04/07 04:21:25;;;;;;;8.93;4.00;;;;;;;-0.17;95.61;99884.63;4999924;28;20053;-90
2021/04/07 04:23:52;;;;;;;8.80;3.77;;;;;;;-0.20;95.86;99894.97;4994959;28;20051;-88
2021/04/07 04:26:18;;;;;;;6.13;3.07;;;;;;;-0.20;96.38;99905.38;5012543;28;20045;-88
2021/04/07 04:28:44;;;;;;;8.70;3.00;;;;;;;-0.17;95.82;99906.28;5029855;28;20159;-88
2021/04/07 04:31:10;;;;;;;7.40;3.30;;;;;;;-0.17;96.41;99914.06;5016785;28;20136;-88
2021/04/07 04:33:37;;;;;;;6.27;2.90;;;;;;;-0.16;95.90;99913.22;5001752;28;20037;-89
2021/04/07 04:36:04;;;;;;;9.00;3.00;;;;;;;-0.12;96.00;99925.38;5018949;28;20143;-87
2021/04/07 04:38:30;;;;;;;9.93;3.77;;;;;;;-0.10;95.96;99920.19;5010074;28;20087;-89
2021/04/07 04:40:56;;;;;;;8.43;3.07;;;;;;;-0.08;95.82;99927.16;5017845;28;20084;-88
2021/04/07 04:43:23;;;;;;;10.40;3.13;;;;;;;-0.02;95.65;99926.31;5000165;28;20061;-89
2021/04/07 04:45:49;;;;;;;12.77;3.50;;;;;;;0.00;95.57;99932.44;5000607;28;20846;-88
2021/04/07 04:48:16;;;;;;;7.53;3.20;;;;;;;0.05;95.25;99933.31;5010136;28;20049;-89
2021/04/07 04:50:42;;;;;;;7.03;3.40;;;;;;;0.03;94.60;99931.56;5018950;28;20048;-89
2021/04/07 04:53:08;;;;;;;15.97;3.63;;;;;;;0.03;94.50;99924.66;4993706;28;20535;-89
2021/04/07 04:55:35;;;;;;;9.00;2.97;;;;;;;0.07;93.96;99923.81;4998829;28;20064;-89
2021/04/07 04:58:01;;;;;;;8.80;3.20;;;;;;;0.09;94.71;99934.25;5019455;28;20041;-89
2021/04/07 05:00:28;;;;;;;8.17;3.67;;;;;;;0.09;93.85;99937.72;5004335;28;20053;-89
2021/04/07 05:02:57;;;;;;;8.83;2.87;;;;;;;0.03;93.55;99931.56;5025153;28;20045;-90
2021/04/07 05:05:25;;;;;;;8.87;3.73;;;;;;;0.11;94.00;99954.19;5022670;28;20072;-89
2021/04/07 05:07:52;;;;;;;8.13;3.43;;;;;;;0.05;93.49;99948.03;5005207;28;20052;-89
2021/04/07 05:10:18;;;;;;;8.50;3.10;;;;;;;0.12;93.74;99950.72;5020728;28;20041;-89
2021/04/07 05:12:47;;;;;;;11.60;3.73;;;;;;;0.15;93.39;99961.13;5013348;28;20080;-88
2021/04/07 05:15:13;;;;;;;10.57;3.30;;;;;;;0.12;93.96;99955.91;5002323;28;20048;-89
2021/04/07 05:17:40;;;;;;;10.20;3.10;;;;;;;0.19;93.79;99965.53;5006021;28;20049;-89
2021/04/07 05:20:07;;;;;;;6.30;3.13;;;;;;;0.27;93.46;99978.59;5002650;28;20613;-89
2021/04/07 05:22:34;;;;;;;9.53;3.10;;;;;;;0.27;93.86;99976.00;5027165;28;20045;-88
2021/04/07 05:25:00;;;;;;;12.23;3.03;;;;;;;0.28;92.78;99976.00;5007674;28;20056;-89
2021/04/07 05:27:26;;;;;;;11.20;3.60;;;;;;;0.34;92.62;99975.19;5000620;28;20099;-89
2021/04/07 05:29:52;;;;;;;6.23;2.80;;;;;;;0.35;92.87;99976.94;5017359;28;20037;-89
2021/04/07 05:32:19;;;;;;;5.70;3.40;;;;;;;0.34;92.51;99984.69;4996105;28;20186;-89
2021/04/07 05:34:46;;;;;;;9.37;3.07;;;;;;;0.39;92.17;99991.69;5004543;28;20083;-88
2021/04/07 05:37:12;;;;;;;8.07;2.50;;;;;;;0.46;91.68;99987.41;5015091;28;20041;-88
2021/04/07 05:39:39;;;;;;;8.73;2.73;;;;;;;0.55;90.89;99983.19;5021346;28;20048;-89
2021/04/07 05:42:05;;;;;;;6.83;3.07;;;;;;;0.56;90.82;99978.84;5017098;28;20072;-90
2021/04/07 05:44:32;;;;;;;6.07;2.97;;;;;;;0.61;90.74;99982.38;5016864;28;20471;-90
2021/04/07 05:46:59;;;;;;;6.60;2.83;;;;;;;0.65;89.72;99981.53;5016832;28;20207;-89
2021/04/07 05:49:26;;;;;;;5.87;3.27;;;;;;;0.71;89.66;99983.31;4999287;28;20041;-89
2021/04/07 05:51:53;;;;;;;8.60;3.00;;;;;;;0.63;89.14;99982.38;5017884;28;20049;-89
2021/04/07 05:54:20;;;;;;;8.63;3.20;;;;;;;0.64;88.98;99984.13;5010423;28;20297;-89
2021/04/07 05:56:46;;;;;;;9.83;2.80;;;;;;;0.70;89.71;99987.66;5002035;28;20391;-89
2021/04/07 05:59:13;;;;;;;9.80;3.30;;;;;;;0.98;88.85;99999.13;4997688;28;20105;-90
2021/04/07 06:01:40;;;;;;;9.93;3.23;;;;;;;0.98;87.30;100001.72;5000620;28;20041;-89
2021/04/07 06:04:06;;;;;;;7.33;3.10;;;;;;;1.12;88.12;100002.72;4998192;28;20045;-89
2021/04/07 06:06:32;;;;;;;4.47;2.47;;;;;;;1.24;86.23;100008.84;4999681;28;20430;-90
2021/04/07 06:08:59;;;;;;;6.27;2.77;;;;;;;1.02;87.39;100006.13;4993723;28;20045;-89
2021/04/07 06:11:25;;;;;;;8.03;2.93;;;;;;;1.17;86.93;100017.47;4997111;28;20037;-89
2021/04/07 06:13:52;;;;;;;9.20;3.87;;;;;;;1.27;87.39;100011.50;5000422;28;20044;-88
2021/04/07 06:16:18;;;;;;;8.37;3.03;;;;;;;1.26;86.22;100014.94;5002340;28;20144;-89
2021/04/07 06:18:44;;;;;;;7.60;3.00;;;;;;;1.29;86.05;100026.25;4996091;28;20048;-89
2021/04/07 06:21:12;;;;;;;9.03;3.37;;;;;;;1.16;86.83;100018.34;5005907;28;20124;-89
2021/04/07 06:23:39;;;;;;;8.00;3.13;;;;;;;1.16;87.72;100024.41;5021592;28;20557;-89
2021/04/07 06:26:05;;;;;;;10.03;3.47;;;;;;;1.20;87.27;100030.53;5006856;28;20309;-89
2021/04/07 06:28:32;;;;;;;10.23;4.77;;;;;;;1.11;87.97;100027.00;5015379;28;20041;-90
2021/04/07 06:30:58;;;;;;;9.53;3.40;;;;;;;1.20;87.46;100030.53;5001463;28;20048;-90
2021/04/07 06:33:28;;;;;;;12.77;6.00;;;;;;;1.07;87.77;100030.41;5018027;28;20043;-89
2021/04/07 06:36:01;;;;;;;8.10;4.87;;;;;;;1.16;88.70;100036.53;5017067;28;20037;-89
2021/04/07 06:38:29;;;;;;;9.67;3.77;;;;;;;1.31;88.48;100032.31;5002353;28;20133;-89
2021/04/07 06:40:57;;;;;;;10.53;4.47;;;;;;;1.40;87.33;100047.13;4997776;28;20045;-89
2021/04/07 06:43:26;;;;;;;6.50;4.30;;;;;;;1.52;87.74;100041.16;5003862;28;20051;-89
2021/04/07 06:45:53;;;;;;;7.60;2.93;;;;;;;1.58;85.86;100044.63;4999252;28;20118;-90
2021/04/07 06:48:20;;;;;;;7.03;3.30;;;;;;;1.85;85.56;100043.03;5017928;28;20426;-89
2021/04/07 06:50:48;;;;;;;7.43;3.30;;;;;;;1.86;85.13;100047.41;4998640;28;20071;-89
2021/04/07 06:53:16;;;;;;;8.47;3.10;;;;;;;1.84;84.45;100044.78;5005196;28;20041;-88
2021/04/07 06:55:42;;;;;;;6.40;3.10;;;;;;;1.86;84.97;100050.00;4999286;28;20056;-91
2021/04/07 06:58:09;;;;;;;7.50;3.80;;;;;;;1.77;84.99;100052.56;5016612;28;20095;-89
2021/04/07 07:00:38;;;;;;;6.50;3.23;;;;;;;1.64;84.70;100047.28;5012697;28;20128;-90
2021/04/07 07:03:11;;;;;;;8.53;3.67;;;;;;;1.80;85.95;100052.59;4991624;28;20099;-87
2021/04/07 07:05:40;;;;;;;8.30;3.53;;;;;;;1.68;85.35;100051.66;5015864;28;20085;-88
2021/04/07 07:08:12;;;;;;;6.63;4.77;;;;;;;1.95;84.13;100048.31;5017875;28;20045;-87
2021/04/07 07:10:38;;;;;;;8.90;3.60;;;;;;;2.05;84.09;100054.44;4998865;28;20052;-88
2021/04/07 07:13:05;;;;;;;10.00;3.50;;;;;;;1.88;82.77;100063.91;5009741;28;20065;-89
2021/04/07 07:15:32;;;;;;;10.77;3.37;;;;;;;1.50;84.79;100061.06;5013906;28;20048;-89
2021/04/07 07:17:58;;;;;;;7.30;3.47;;;;;;;1.48;84.89;100065.41;5018362;28;20051;-88
2021/04/07 07:20:26;;;;;;;15.10;4.17;;;;;;;1.57;85.75;100061.13;5003458;28;20037;-87
2021/04/07 07:22:52;;;;;;;9.90;3.60;;;;;;;1.72;86.25;100068.16;5012414;28;20055;-89
2021/04/07 07:25:18;;;;;;;10.97;3.20;;;;;;;1.66;85.37;100068.97;5017329;28;20043;-88
2021/04/07 07:27:45;;;;;;;7.77;3.27;;;;;;;1.57;87.52;100081.94;5019076;28;20050;-89
2021/04/07 07:30:13;;;;;;;7.93;3.57;;;;;;;1.60;88.03;100079.38;4999063;28;20064;-88
2021/04/07 07:32:41;;;;;;;7.53;3.60;;;;;;;1.58;89.09;100078.47;4999646;28;20041;-88
2021/04/07 07:35:13;;;;;;;10.63;5.13;;;;;;;1.57;87.66;100081.06;5002584;28;20053;-88
2021/04/07 07:37:40;;;;;;;8.97;5.13;;;;;;;1.66;87.62;100082.00;5011753;28;20060;-88
2021/04/07 07:40:16;;;;;;;7.67;3.50;;;;;;;1.57;87.40;100092.38;5015775;28;20047;-88
2021/04/07 07:42:43;;;;;;;7.50;3.80;;;;;;;1.61;86.89;100093.28;5017041;28;20033;-89
2021/04/07 07:45:11;;;;;;;7.50;3.67;;;;;;;1.72;87.56;100098.53;4999664;28;20055;-88
2021/04/07 07:47:41;;;;;;;11.20;5.20;;;;;;;1.82;86.58;100090.78;5017018;28;20040;-87
2021/04/07 07:50:09;;;;;;;9.57;3.30;;;;;;;1.82;85.61;100097.72;5001522;28;20040;-87
2021/04/07 07:52:38;;;;;;;11.67;3.90;;;;;;;1.94;85.20;100105.63;4998028;28;20135;-88
2021/04/07 07:55:18;;;;;;;9.10;3.77;;;;;;;2.01;85.34;100112.59;5016318;28;20049;-87
2021/04/07 07:57:55;;;;;;;8.93;4.27;;;;;;;2.08;84.84;100110.88;5016188;28;20046;-88
2021/04/07 08:00:25;;;;;;;7.43;3.20;;;;;;;2.13;84.41;100117.88;4999306;28;20427;-87
2021/04/07 08:02:52;;;;;;;8.37;3.20;;;;;;;2.15;83.79;100115.28;4998160;28;20045;-87
2021/04/07 08:05:19;;;;;;;5.87;3.40;;;;;;;2.20;83.88;100121.41;5018237;28;20056;-89
2021/04/07 08:07:46;;;;;;;6.77;3.90;;;;;;;2.44;85.50;100121.50;5002552;28;20483;-88
2021/04/07 08:10:16;;;;;;;11.47;3.50;;;;;;;2.59;83.01;100117.19;5028385;28;20060;-88
2021/04/07 08:12:42;;;;;;;10.37;3.60;;;;;;;2.63;79.86;100127.63;5008855;28;20038;-89
2021/04/07 08:15:15;;;;;;;9.57;3.30;;;;;;;2.54;79.41;100128.47;5007489;28;20056;-89
2021/04/07 08:17:41;;;;;;;8.70;3.10;;;;;;;2.49;81.53;100131.94;5005222;28;20045;-89
2021/04/07 08:20:08;;;;;;;8.93;2.87;;;;;;;2.64;80.19;100128.50;5022374;28;20041;-89
2021/04/07 08:22:36;;;;;;;10.90;3.77;;;;;;;2.85;80.57;100138.13;5021532;28;20178;-89
2021/04/07 08:25:04;;;;;;;10.70;4.40;;;;;;;3.28;79.17;100141.66;5025737;28;20063;-89
2021/04/07 08:27:32;;;;;;;6.47;3.13;;;;;;;3.55;77.35;100140.81;5008690;28;20044;-89
2021/04/07 08:29:58;;;;;;;5.53;3.20;;;;;;;3.58;74.46;100138.19;5029361;28;20161;-90
2021/04/07 08:32:25;;;;;;;6.43;2.80;;;;;;;3.70;75.12;100134.69;5013631;28;20321;-88
2021/04/07 08:34:51;;;;;;;7.87;3.13;;;;;;;3.93;76.10;100138.16;4997245;28;20056;-88
2021/04/07 08:37:29;;;;;;;10.67;3.90;;;;;;;4.10;73.74;100135.50;5017596;28;20513;-88
2021/04/07 08:39:55;;;;;;;8.80;3.63;;;;;;;3.92;73.07;100137.28;5020873;28;20037;-88
2021/04/07 08:42:22;;;;;;;7.77;3.20;;;;;;;4.03;73.27;100136.38;5001377;28;20300;-89
2021/04/07 08:44:50;;;;;;;7.87;3.40;;;;;;;3.98;72.94;100146.84;5013273;28;20036;-89
2021/04/07 08:47:31;;;;;;;6.93;2.90;;;;;;;4.22;72.62;100151.16;5002971;28;20056;-90
2021/04/07 08:50:06;;;;;;;8.63;3.40;;;;;;;4.15;70.84;100146.81;5003908;28;20073;-89
2021/04/07 08:52:47;;;;;;;7.97;3.70;;;;;;;4.35;70.03;100159.81;5002915;28;20057;-89
2021/04/07 08:55:18;;;;;;;8.83;4.53;;;;;;;5.14;68.01;100150.72;5021964;28;20456;-89
2021/04/07 08:57:58;;;;;;;9.97;3.53;;;;;;;5.31;66.06;100152.34;5001714;28;20049;-90
2021/04/07 09:00:26;;;;;;;9.00;3.67;;;;;;;5.51;64.45;100146.09;5002614;28;20103;-88
2021/04/07 09:03:14;;;;;;;9.60;4.27;;;;;;;4.71;67.69;100161.44;5018624;28;20474;-90
2021/04/07 09:06:02;;;;;;;10.47;3.73;;;;;;;4.49;69.43;100155.44;5003993;28;20483;-87
2021/04/07 09:08:29;;;;;;;11.93;4.47;;;;;;;4.40;69.29;100164.19;5028534;28;20041;-88
2021/04/07 09:10:57;;;;;;;6.30;3.00;;;;;;;4.55;67.59;100158.03;5010727;28;20039;-89
2021/04/07 09:14:33;;;;;;;8.97;3.23;;;;;;;4.73;66.78;100160.56;5025053;28;20044;-89
2021/04/07 09:17:05;;;;;;;8.52;3.47;;;;;;;4.41;67.68;100160.69;5016840;28;20434;-89
2021/04/07 09:19:34;;;;;;;7.87;3.10;;;;;;;3.90;68.43;100167.78;5011121;28;20048;-88
2021/04/07 09:22:05;;;;;;;8.07;2.60;;;;;;;3.90;67.89;100170.38;5022166;28;20046;-89
2021/04/07 09:24:37;;;;;;;9.13;3.33;;;;;;;4.31;70.33;100164.22;5019669;28;20044;-88
2021/04/07 09:27:04;;;;;;;4.27;2.77;;;;;;;4.07;69.80;100167.75;5007661;28;20048;-89
2021/04/07 09:29:30;;;;;;;6.00;2.97;;;;;;;4.01;68.05;100178.22;5001990;28;20040;-88
2021/04/07 09:31:57;;;;;;;7.30;3.43;;;;;;;4.02;68.14;100182.56;5017642;28;20049;-89
2021/04/07 09:34:24;;;;;;;10.63;3.90;;;;;;;3.86;68.99;100168.63;5016847;28;20048;-88
2021/04/07 09:36:51;;;;;;;10.07;3.33;;;;;;;3.83;68.19;100178.22;5000305;28;20109;-89
2021/04/07 09:39:23;;;;;;;6.20;2.67;;;;;;;3.95;68.99;100173.88;5021773;28;20124;-90
2021/04/07 09:41:51;;;;;;;8.87;2.77;;;;;;;3.94;67.90;100177.34;5002631;28;20144;-89
2021/04/07 09:44:18;;;;;;;5.07;2.40;;;;;;;4.37;70.61;100179.00;5028450;23;20532;-72
2021/04/07 09:46:53;;;;;;;8.37;3.00;;;;;;;4.87;67.63;100178.78;5079595;28;20055;-72
2021/04/07 09:49:20;;;;;;;5.90;2.20;;;;;;;4.79;65.00;100175.34;5086564;28;20036;-72
2021/04/07 09:51:48;;;;;;;5.80;2.33;;;;;;;4.65;64.96;100185.88;5106011;28;20069;-72
2021/04/07 09:54:20;;;;;;;7.17;2.70;;;;;;;4.23;64.06;100197.34;5087436;28;20751;-72
2021/04/07 09:57:08;;;;;;;9.23;2.30;;;;;;;3.73;65.65;100184.34;5069994;28;20051;-72
2021/04/07 09:59:37;;;;;;;6.57;2.70;;;;;;;3.75;66.88;100179.97;5086286;28;20032;-73
2021/04/07 10:02:05;;;;;;;6.40;3.43;;;;;;;3.63;67.46;100176.50;5103756;28;20118;-72
2021/04/07 10:04:34;;;;;;;8.17;2.73;;;;;;;3.74;66.55;100183.47;5101603;28;20404;-72
2021/04/07 10:07:34;;;;;;;7.63;2.53;;;;;;;3.52;65.68;100183.47;5059937;28;20040;-72
2021/04/07 10:10:01;;;;;;;7.47;3.93;;;;;;;3.75;68.61;100183.47;5050405;28;20069;-72
2021/04/07 10:12:29;;;;;;;6.80;3.47;;;;;;;4.05;64.93;100176.47;5106628;28;20044;-73
2021/04/07 10:15:00;;;;;;;5.43;1.90;;;;;;;4.36;62.73;100179.88;5068823;28;20043;-73
2021/04/07 10:17:31;;;;;;;6.93;2.73;;;;;;;4.34;62.99;100182.50;5084112;28;20061;-72
2021/04/07 10:20:15;;;;;;;6.57;2.60;;;;;;;4.30;62.51;100183.38;5056929;28;20039;-72
2021/04/07 10:22:43;;;;;;;4.97;2.00;;;;;;;4.38;63.31;100189.47;5082836;28;20573;-72
2021/04/07 10:25:19;;;;;;;6.33;2.00;;;;;;;5.68;60.88;100172.16;5088199;28;20043;-72
2021/04/07 10:27:46;;;;;;;9.37;2.53;;;;;;;5.84;57.49;100171.13;5086622;28;20036;-73
2021/04/07 10:30:20;;;;;;;8.07;1.93;;;;;;;6.14;56.71;100157.78;5085621;28;20058;-73
2021/04/07 10:32:48;;;;;;;5.70;1.55;;;;;;;6.32;58.12;100171.56;5082349;28;20616;-72
2021/04/07 10:35:25;;;;;;;3.27;1.57;;;;;;;5.77;57.65;100183.41;5055247;28;20043;-72
2021/04/07 10:37:56;;;;;;;4.97;1.83;;;;;;;5.39;60.31;100188.97;5088109;28;20066;-72
2021/04/07 10:40:24;;;;;;;5.93;2.30;;;;;;;5.52;59.27;100184.50;5070493;28;20070;-72
2021/04/07 10:42:50;;;;;;;3.67;1.80;;;;;;;5.74;59.66;100178.22;5085495;28;20039;-70
2021/04/07 10:45:18;;;;;;;4.63;2.20;;;;;;;5.13;60.36;100204.84;5084555;28;20035;-71
2021/04/07 10:47:45;;;;;;;8.43;2.97;;;;;;;4.69;61.77;100187.59;5071954;28;20044;-72
2021/04/07 10:50:12;;;;;;;6.20;2.50;;;;;;;4.45;63.46;100198.16;5085204;28;20036;-72
2021/04/07 10:52:40;;;;;;;5.20;2.10;;;;;;;4.67;61.94;100205.06;5086357;28;20093;-72
2021/04/07 10:55:10;;;;;;;5.77;1.90;;;;;;;4.61;63.38;100196.34;5085889;28;20040;-72
2021/04/07 10:57:43;;;;;;;7.07;2.57;;;;;;;4.81;63.36;100205.00;5071135;28;20618;-72
2021/04/07 11:00:23;;;;;;;5.72;2.08;;;;;;;4.37;64.21;100211.28;5068882;28;20040;-72
2021/04/07 11:02:51;;;;;;;6.73;2.00;;;;;;;4.58;62.97;100212.06;5066022;28;20051;-72
2021/04/07 11:05:23;;;;;;;4.43;1.77;;;;;;;4.31;63.57;100213.91;5104316;28;20040;-72
2021/04/07 11:08:04;;;;;;;4.80;1.90;;;;;;;4.23;63.87;100215.66;5101940;28;20069;-72
2021/04/07 11:10:48;;;;;;;4.17;1.90;;;;;;;4.52;64.73;100212.94;5093618;28;20039;-72
2021/04/07 11:13:15;;;;;;;2.60;1.80;;;;;;;4.82;62.64;100211.13;5086036;28;20054;-72
2021/04/07 11:15:42;;;;;;;6.60;1.70;;;;;;;4.47;61.63;100219.97;5068241;28;20060;-72
2021/04/07 11:18:08;;;;;;;4.57;1.23;;;;;;;4.29;62.36;100231.34;5064167;28;20043;-72
2021/04/07 11:20:41;;;;;;;3.87;1.57;;;;;;;4.26;64.39;100227.84;5068414;28;20505;-72
2021/04/07 11:23:08;;;;;;;3.97;1.63;;;;;;;4.13;63.51;100222.66;5069554;28;20040;-72
2021/04/07 11:25:39;;;;;;;7.13;1.70;;;;;;;4.31;64.06;100232.19;5098431;28;20110;-72
2021/04/07 11:28:17;;;;;;;5.30;2.40;;;;;;;4.26;63.34;100233.06;5077593;28;20046;-71
2021/04/07 11:30:57;;;;;;;2.87;1.57;;;;;;;3.81;63.93;100248.78;5099684;28;20040;-72
2021/04/07 11:33:28;;;;;;;5.77;1.57;;;;;;;3.78;65.20;100235.69;5030858;28;20517;-72
2021/04/07 11:36:28;;;;;;;6.23;1.63;;;;;;;4.14;66.01;100239.19;5068267;28;20046;-72
2021/04/07 11:39:13;;;;;;;2.77;1.37;;;;;;;4.22;63.97;100240.06;5072651;28;20035;-72
2021/04/07 11:46:37;;;;;;;4.70;1.87;;;;;;;4.31;64.72;100241.78;5100644;28;21262;-72